createdAt,value
2022-10-26T00:00:32.737Z,13.74
2022-10-26T00:03:24.611Z,13.70
2022-10-26T00:05:56.614Z,13.74
2022-10-26T00:08:28.843Z,13.75
2022-10-26T00:11:01.426Z,13.71
2022-10-26T00:13:34.123Z,13.69
2022-10-26T00:16:11.726Z,13.66
2022-10-26T00:18:44.641Z,13.64
2022-10-26T00:21:17.263Z,13.63
2022-10-26T00:23:49.321Z,13.60
2022-10-26T00:26:21.515Z,13.59
2022-10-26T00:28:55.814Z,13.47
2022-10-26T00:31:27.838Z,13.54
2022-10-26T00:34:00.461Z,13.48
2022-10-26T00:36:32.687Z,13.45
2022-10-26T00:39:04.684Z,13.33
2022-10-26T00:41:37.242Z,13.36
2022-10-26T00:44:38.927Z,13.35
2022-10-26T00:47:14.623Z,13.26
2022-10-26T00:49:49.774Z,13.30
2022-10-26T00:52:23.066Z,13.24
2022-10-26T00:54:55.293Z,13.24
2022-10-26T00:57:28.697Z,13.25
2022-10-26T01:00:01.759Z,13.24
2022-10-26T01:02:34.390Z,13.21
2022-10-26T01:05:08.426Z,13.15
2022-10-26T01:07:41.402Z,13.19
2022-10-26T01:10:14.087Z,13.17
2022-10-26T01:12:46.974Z,13.16
2022-10-26T01:15:19.251Z,13.17
2022-10-26T01:17:58.906Z,13.15
2022-10-26T01:20:53.745Z,13.14
2022-10-26T01:23:33.240Z,13.15
2022-10-26T01:26:33.025Z,13.14
2022-10-26T01:29:31.389Z,13.11
2022-10-26T01:32:10.438Z,13.13
2022-10-26T01:34:48.009Z,13.12
2022-10-26T01:37:25.670Z,13.15
2022-10-26T01:40:03.568Z,13.18
2022-10-26T01:42:40.862Z,13.20
2022-10-26T01:45:16.044Z,13.17
2022-10-26T01:47:50.501Z,13.03
2022-10-26T01:50:24.426Z,13.12
2022-10-26T01:52:56.793Z,13.11
2022-10-26T01:55:52.516Z,13.15
2022-10-26T01:58:44.260Z,13.23
2022-10-26T02:01:32.522Z,13.28
2022-10-26T02:04:14.175Z,13.24
2022-10-26T02:06:55.862Z,13.25
2022-10-26T02:09:39.653Z,13.28
2022-10-26T02:12:21.640Z,13.28
2022-10-26T02:14:59.519Z,13.30
2022-10-26T02:17:35.743Z,13.31
2022-10-26T02:20:15.282Z,13.29
2022-10-26T02:22:51.636Z,13.22
2022-10-26T02:25:28.531Z,13.21
2022-10-26T02:28:05.920Z,13.20
2022-10-26T02:30:40.043Z,13.14
2022-10-26T02:33:14.997Z,13.10
2022-10-26T02:35:51.890Z,13.12
2022-10-26T02:38:24.897Z,13.05
2022-10-26T02:40:58.007Z,13.06
2022-10-26T02:46:13.902Z,13.02
2022-10-26T02:48:46.019Z,13.00
2022-10-26T02:51:25.541Z,12.99
2022-10-26T02:54:04.310Z,12.97
2022-10-26T02:56:41.491Z,12.83
2022-10-26T02:59:16.271Z,12.86
2022-10-26T03:01:47.366Z,12.81
2022-10-26T03:04:20.174Z,12.79
2022-10-26T03:06:56.376Z,12.75
2022-10-26T03:09:28.973Z,12.74
2022-10-26T03:12:00.904Z,12.75
2022-10-26T03:14:32.890Z,12.74
2022-10-26T03:17:05.077Z,12.72
2022-10-26T03:19:37.335Z,12.71
2022-10-26T03:22:09.459Z,12.71
2022-10-26T03:24:41.530Z,12.70
2022-10-26T03:27:13.676Z,12.68
2022-10-26T03:29:45.692Z,12.67
2022-10-26T03:32:17.887Z,12.66
2022-10-26T03:34:50.363Z,12.63
2022-10-26T03:37:22.313Z,12.60
2022-10-26T03:39:54.763Z,12.57
2022-10-26T03:42:28.034Z,12.55
2022-10-26T03:45:00.027Z,12.55
2022-10-26T03:47:32.983Z,12.47
2022-10-26T03:52:43.010Z,12.53
2022-10-26T03:55:15.591Z,12.43
2022-10-26T03:57:48.334Z,12.51
2022-10-26T04:00:21.652Z,12.48
2022-10-26T04:03:00.298Z,12.48
2022-10-26T04:05:32.591Z,12.46
2022-10-26T04:08:05.065Z,12.45
2022-10-26T04:10:39.579Z,12.44
2022-10-26T04:13:12.490Z,12.41
2022-10-26T04:15:44.480Z,12.39
2022-10-26T04:18:16.392Z,12.37
2022-10-26T04:20:48.335Z,12.35
2022-10-26T04:23:21.177Z,12.26
2022-10-26T04:25:53.568Z,12.33
2022-10-26T04:28:25.897Z,12.32
2022-10-26T04:30:57.835Z,12.28
2022-10-26T04:33:33.610Z,12.28
2022-10-26T04:36:06.091Z,12.25
2022-10-26T04:38:38.169Z,12.26
2022-10-26T04:41:10.258Z,12.25
2022-10-26T04:43:42.149Z,12.23
2022-10-26T04:46:16.739Z,12.18
2022-10-26T04:48:48.629Z,12.17
2022-10-26T04:51:20.769Z,12.19
2022-10-26T04:53:54.364Z,12.17
2022-10-26T04:56:26.817Z,12.15
2022-10-26T04:58:59.062Z,11.93
2022-10-26T05:01:31.799Z,12.03
2022-10-26T05:04:06.461Z,12.06
2022-10-26T05:06:38.675Z,11.98
2022-10-26T05:09:10.855Z,11.99
2022-10-26T05:11:42.991Z,11.86
2022-10-26T05:14:14.944Z,11.79
2022-10-26T05:16:46.928Z,11.79
2022-10-26T05:19:18.947Z,11.81
2022-10-26T05:21:53.331Z,11.76
2022-10-26T05:24:25.577Z,11.72
2022-10-26T05:27:02.237Z,11.72
2022-10-26T05:29:34.837Z,11.75
2022-10-26T05:32:07.469Z,11.57
2022-10-26T05:34:41.505Z,11.71
2022-10-26T05:37:13.980Z,11.77
2022-10-26T05:39:46.237Z,11.76
2022-10-26T05:42:18.269Z,11.77
2022-10-26T05:44:50.445Z,11.73
2022-10-26T05:47:22.388Z,11.89
2022-10-26T05:49:54.474Z,11.87
2022-10-26T05:52:26.718Z,11.91
2022-10-26T05:55:02.245Z,11.95
2022-10-26T05:57:35.505Z,11.96
2022-10-26T06:00:16.437Z,11.90
2022-10-26T06:03:02.917Z,11.97
2022-10-26T06:05:39.068Z,12.02
2022-10-26T06:08:13.393Z,12.08
2022-10-26T06:10:46.348Z,12.11
2022-10-26T06:13:19.579Z,12.16
2022-10-26T06:16:04.172Z,12.15
2022-10-26T06:18:48.404Z,12.08
2022-10-26T06:21:36.123Z,12.06
2022-10-26T06:24:15.485Z,12.06
2022-10-26T06:26:54.682Z,11.95
2022-10-26T06:29:39.097Z,12.00
2022-10-26T06:32:12.617Z,12.03
2022-10-26T06:34:50.352Z,12.10
2022-10-26T06:37:23.264Z,12.14
2022-10-26T06:39:57.093Z,12.33
2022-10-26T06:42:31.089Z,12.40
2022-10-26T06:45:04.337Z,12.45
2022-10-26T06:47:42.932Z,12.44
2022-10-26T06:50:30.208Z,12.52
2022-10-26T06:53:17.409Z,12.54
2022-10-26T06:55:51.586Z,12.61
2022-10-26T06:58:27.019Z,12.68
2022-10-26T07:00:59.598Z,12.66
2022-10-26T07:03:31.919Z,12.57
2022-10-26T07:06:03.991Z,12.64
2022-10-26T07:08:36.212Z,12.76
2022-10-26T07:11:09.457Z,12.82
2022-10-26T07:13:41.765Z,12.85
2022-10-26T07:16:13.830Z,12.94
2022-10-26T07:18:45.770Z,12.92
2022-10-26T07:21:18.040Z,13.04
2022-10-26T07:23:50.017Z,13.04
2022-10-26T07:26:22.106Z,13.10
2022-10-26T07:28:54.556Z,13.17
2022-10-26T07:31:26.738Z,13.14
2022-10-26T07:33:59.162Z,13.21
2022-10-26T07:36:32.254Z,13.13
2022-10-26T07:39:04.474Z,12.98
2022-10-26T07:41:37.195Z,12.87
2022-10-26T07:44:09.513Z,13.03
2022-10-26T07:46:41.893Z,12.99
2022-10-26T07:49:16.352Z,13.22
2022-10-26T07:51:51.525Z,13.18
2022-10-26T07:54:23.798Z,13.25
2022-10-26T07:56:56.099Z,13.28
2022-10-26T07:59:28.358Z,13.41
2022-10-26T08:02:00.552Z,13.44
2022-10-26T08:04:32.807Z,13.52
2022-10-26T08:07:04.826Z,13.58
2022-10-26T08:09:37.270Z,13.60
2022-10-26T08:12:10.089Z,13.60
2022-10-26T08:14:42.037Z,13.63
2022-10-26T08:17:14.108Z,13.71
2022-10-26T08:19:48.441Z,13.79
2022-10-26T08:22:20.473Z,13.79
2022-10-26T08:24:52.495Z,13.95
2022-10-26T08:27:24.549Z,14.04
2022-10-26T08:29:56.971Z,14.12
2022-10-26T08:32:29.211Z,14.19
2022-10-26T08:35:01.368Z,14.27
2022-10-26T08:37:33.672Z,14.33
2022-10-26T08:40:07.074Z,14.36
2022-10-26T08:42:45.096Z,14.40
2022-10-26T08:45:30.627Z,14.41
2022-10-26T08:48:11.068Z,14.46
2022-10-26T08:50:48.330Z,14.52
2022-10-26T08:53:28.204Z,14.56
2022-10-26T08:56:05.816Z,14.61
2022-10-26T08:58:44.026Z,14.67
2022-10-26T09:01:16.699Z,14.68
2022-10-26T09:03:48.942Z,14.73
2022-10-26T09:06:32.149Z,14.78
2022-10-26T09:09:10.756Z,14.88
2022-10-26T09:11:58.112Z,14.89
2022-10-26T09:14:42.375Z,14.93
2022-10-26T09:17:23.961Z,15.06
2022-10-26T09:20:26.801Z,15.08
2022-10-26T09:23:05.886Z,15.17
2022-10-26T09:25:42.392Z,15.25
2022-10-26T09:28:18.680Z,15.28
2022-10-26T09:30:51.790Z,15.34
2022-10-26T09:33:26.606Z,15.34
2022-10-26T09:36:02.492Z,15.47
2022-10-26T09:38:37.997Z,15.52
2022-10-26T09:41:24.430Z,15.62
2022-10-26T09:44:03.014Z,15.59
2022-10-26T09:46:45.915Z,15.71
2022-10-26T09:49:19.538Z,15.92
2022-10-26T09:51:51.732Z,16.03
2022-10-26T09:54:24.552Z,15.98
2022-10-26T09:57:02.221Z,16.08
2022-10-26T09:59:40.172Z,16.18
2022-10-26T10:02:40.328Z,16.20
2022-10-26T10:05:49.836Z,16.31
2022-10-26T10:08:22.191Z,16.40
2022-10-26T10:11:00.723Z,16.46
2022-10-26T10:13:34.870Z,16.51
2022-10-26T10:16:11.375Z,16.54
2022-10-26T10:18:53.541Z,16.72
2022-10-26T10:21:37.387Z,16.78
2022-10-26T10:24:26.234Z,16.69
2022-10-26T10:27:06.696Z,16.74
2022-10-26T10:29:44.358Z,16.91
2022-10-26T10:32:20.811Z,16.98
2022-10-26T10:34:56.078Z,16.94
2022-10-26T10:37:32.066Z,16.86
2022-10-26T10:40:08.371Z,16.96
2022-10-26T10:42:43.447Z,17.17
2022-10-26T10:45:20.348Z,17.14
2022-10-26T10:48:05.559Z,17.14
2022-10-26T10:50:37.483Z,17.34
2022-10-26T10:53:23.683Z,17.21
2022-10-26T10:56:11.519Z,17.29
2022-10-26T10:58:50.831Z,17.40
2022-10-26T11:01:27.690Z,17.29
2022-10-26T11:04:17.768Z,17.53
2022-10-26T11:06:52.352Z,17.53
2022-10-26T11:09:28.975Z,17.63
2022-10-26T11:12:10.062Z,17.80
2022-10-26T11:14:48.933Z,17.91
2022-10-26T11:17:25.777Z,17.71
2022-10-26T11:20:02.580Z,17.87
2022-10-26T11:22:40.432Z,17.79
2022-10-26T11:25:19.311Z,17.96
2022-10-26T11:27:55.610Z,18.00
2022-10-26T11:30:34.953Z,17.84
2022-10-26T11:33:13.672Z,17.76
2022-10-26T11:35:55.142Z,17.91
2022-10-26T11:38:45.983Z,18.14
2022-10-26T11:41:31.946Z,18.11
2022-10-26T11:44:12.684Z,18.22
2022-10-26T11:46:49.096Z,18.01
2022-10-26T11:49:27.510Z,18.05
2022-10-26T11:52:05.246Z,18.20
2022-10-26T11:54:45.107Z,18.11
2022-10-26T11:57:17.833Z,18.24
2022-10-26T11:59:54.280Z,18.50
2022-10-26T12:02:27.622Z,18.52
2022-10-26T12:05:06.526Z,18.50
2022-10-26T12:07:41.774Z,18.55
2022-10-26T12:10:24.750Z,18.48
2022-10-26T12:13:08.713Z,18.42
2022-10-26T12:16:04.308Z,18.58
2022-10-26T12:18:55.895Z,18.61
2022-10-26T12:21:30.650Z,18.66
2022-10-26T12:24:23.912Z,18.70
2022-10-26T12:26:57.718Z,18.72
2022-10-26T12:29:49.398Z,18.76
2022-10-26T12:32:54.947Z,18.73
2022-10-26T12:35:43.933Z,18.73
2022-10-26T12:39:01.050Z,18.77
2022-10-26T12:41:33.306Z,18.72
2022-10-26T12:44:34.664Z,18.77
2022-10-26T12:47:07.755Z,18.74
2022-10-26T12:50:02.682Z,18.85
2022-10-26T12:52:53.957Z,18.91
2022-10-26T12:56:05.303Z,18.88
2022-10-26T12:59:17.239Z,18.93
2022-10-26T13:02:16.387Z,18.97
2022-10-26T13:05:30.621Z,18.97
2022-10-26T13:08:07.463Z,18.94
2022-10-26T13:10:46.039Z,18.96
2022-10-26T13:13:25.723Z,18.93
2022-10-26T13:15:59.239Z,18.99
2022-10-26T13:18:32.505Z,18.97
2022-10-26T13:21:09.284Z,18.96
2022-10-26T13:23:46.375Z,19.04
2022-10-26T13:26:20.274Z,19.05
2022-10-26T13:28:55.080Z,18.91
2022-10-26T13:31:43.123Z,18.99
2022-10-26T13:34:19.740Z,19.00
2022-10-26T13:36:59.566Z,18.99
2022-10-26T13:39:37.199Z,18.90
2022-10-26T13:42:16.613Z,18.97
2022-10-26T13:44:54.648Z,19.01
2022-10-26T13:47:31.514Z,19.05
2022-10-26T13:50:08.800Z,19.10
2022-10-26T13:52:44.549Z,18.96
2022-10-26T13:55:24.572Z,18.90
2022-10-26T13:58:14.221Z,19.02
2022-10-26T14:01:03.831Z,19.12
2022-10-26T14:03:35.913Z,19.34
2022-10-26T14:06:23.675Z,19.31
2022-10-26T14:08:58.800Z,19.21
2022-10-26T14:11:36.231Z,19.24
2022-10-26T14:14:14.307Z,19.30
2022-10-26T14:16:48.166Z,19.43
2022-10-26T14:19:26.050Z,19.28
2022-10-26T14:21:59.280Z,19.33
2022-10-26T14:24:46.673Z,19.35
2022-10-26T14:27:21.136Z,19.25
2022-10-26T14:30:21.020Z,19.11
2022-10-26T14:32:47.984Z,18.96
2022-10-26T14:35:23.331Z,18.87
2022-10-26T14:38:01.108Z,18.77
2022-10-26T14:40:35.835Z,18.59
2022-10-26T14:43:09.371Z,18.49
2022-10-26T14:45:49.692Z,18.39
2022-10-26T14:48:30.071Z,18.38
2022-10-26T14:51:09.520Z,18.29
2022-10-26T14:53:48.729Z,18.23
2022-10-26T14:56:26.600Z,18.06
2022-10-26T14:59:00.359Z,18.12
2022-10-26T15:01:48.275Z,18.05
2022-10-26T15:04:32.091Z,17.99
2022-10-26T15:07:17.341Z,17.95
2022-10-26T15:09:51.000Z,17.91
2022-10-26T15:12:36.234Z,17.86
2022-10-26T15:15:23.595Z,17.78
2022-10-26T15:17:59.759Z,17.73
2022-10-26T15:20:32.850Z,17.49
2022-10-26T15:23:05.747Z,17.58
2022-10-26T15:25:38.173Z,17.51
2022-10-26T15:28:23.094Z,17.44
2022-10-26T15:31:07.376Z,17.35
2022-10-26T15:33:41.416Z,17.30
2022-10-26T15:36:17.204Z,17.25
2022-10-26T15:38:49.968Z,17.20
2022-10-26T15:41:26.581Z,17.12
2022-10-26T15:44:01.471Z,17.06
2022-10-26T15:46:35.920Z,17.01
2022-10-26T15:49:15.108Z,16.94
2022-10-26T15:51:49.306Z,16.88
2022-10-26T15:54:21.458Z,16.83
2022-10-26T15:56:53.726Z,16.78
2022-10-26T15:59:26.051Z,16.72
2022-10-26T16:01:58.342Z,16.61
2022-10-26T16:04:30.537Z,16.47
2022-10-26T16:07:05.897Z,16.53
2022-10-26T16:09:38.434Z,16.50
2022-10-26T16:12:12.330Z,16.45
2022-10-26T16:15:04.236Z,16.39
2022-10-26T16:17:36.903Z,16.34
2022-10-26T16:20:13.675Z,16.29
2022-10-26T16:22:48.505Z,16.21
2022-10-26T16:25:20.185Z,16.14
2022-10-26T16:27:52.984Z,16.07
2022-10-26T16:30:30.265Z,16.03
2022-10-26T16:33:02.915Z,15.98
2022-10-26T16:35:35.226Z,15.91
2022-10-26T16:38:07.258Z,15.84
2022-10-26T16:40:42.723Z,15.76
2022-10-26T16:43:14.762Z,15.70
2022-10-26T16:45:47.651Z,15.63
2022-10-26T16:48:19.611Z,15.56
2022-10-26T16:50:51.800Z,15.51
2022-10-26T16:53:24.562Z,15.47
2022-10-26T16:56:02.538Z,15.43
2022-10-26T16:58:37.460Z,15.39
2022-10-26T17:01:13.153Z,15.36
2022-10-26T17:03:47.244Z,15.19
2022-10-26T17:06:20.263Z,15.29
2022-10-26T17:08:53.101Z,15.27
2022-10-26T17:11:25.379Z,15.24
2022-10-26T17:13:57.997Z,15.20
2022-10-26T17:16:30.761Z,15.10
2022-10-26T17:19:03.431Z,15.15
2022-10-26T17:21:37.554Z,15.05
2022-10-26T17:24:10.778Z,15.10
2022-10-26T17:26:44.522Z,15.07
2022-10-26T17:29:19.452Z,15.05
2022-10-26T17:31:52.933Z,15.04
2022-10-26T17:34:26.352Z,15.02
2022-10-26T17:36:59.823Z,14.99
2022-10-26T17:39:34.833Z,14.96
2022-10-26T17:42:06.922Z,14.92
2022-10-26T17:44:40.657Z,14.91
2022-10-26T17:47:15.653Z,14.88
2022-10-26T17:49:49.062Z,14.85
2022-10-26T17:52:24.829Z,14.83
2022-10-26T17:55:01.773Z,14.83
2022-10-26T17:57:37.813Z,14.84
2022-10-26T18:00:14.617Z,14.83
2022-10-26T18:02:48.071Z,14.84
2022-10-26T18:05:23.937Z,14.83
2022-10-26T18:07:58.159Z,14.80
2022-10-26T18:10:37.857Z,14.79
2022-10-26T18:13:15.542Z,14.77
2022-10-26T18:15:49.281Z,14.75
2022-10-26T18:18:23.141Z,14.73
2022-10-26T18:21:01.190Z,14.71
2022-10-26T18:23:34.919Z,14.69
2022-10-26T18:26:13.074Z,14.67
2022-10-26T18:28:48.049Z,14.65
2022-10-26T18:31:26.375Z,14.65
2022-10-26T18:34:02.559Z,14.61
2022-10-26T18:39:15.051Z,14.59
2022-10-26T18:41:48.495Z,14.56
2022-10-26T18:44:22.932Z,14.55
2022-10-26T18:46:56.611Z,14.53
2022-10-26T18:49:29.969Z,14.52
2022-10-26T18:52:04.979Z,14.49
2022-10-26T18:54:39.419Z,14.49
2022-10-26T18:57:13.217Z,14.48
2022-10-26T18:59:46.480Z,14.46
2022-10-26T19:02:21.129Z,14.46
2022-10-26T19:04:58.865Z,14.44
2022-10-26T19:07:32.091Z,14.43
2022-10-26T19:10:04.695Z,14.43
2022-10-26T19:12:37.310Z,14.41
2022-10-26T19:15:10.674Z,14.41
2022-10-26T19:17:42.805Z,14.41
2022-10-26T19:20:15.379Z,14.40
2022-10-26T19:22:48.292Z,14.39
2022-10-26T19:25:21.328Z,14.39
2022-10-26T19:27:55.573Z,14.40
2022-10-26T19:30:27.821Z,14.40
2022-10-26T19:33:00.458Z,14.39
2022-10-26T19:35:32.757Z,14.38
2022-10-26T19:38:05.095Z,14.38
2022-10-26T19:40:37.132Z,14.37
2022-10-26T19:43:10.519Z,14.37
2022-10-26T19:45:42.640Z,14.36
2022-10-26T19:48:14.650Z,14.35
2022-10-26T19:50:51.713Z,14.34
2022-10-26T19:53:24.507Z,14.32
2022-10-26T19:55:59.565Z,14.31
2022-10-26T19:58:32.743Z,14.29
2022-10-26T20:01:05.628Z,14.28
2022-10-26T20:03:38.375Z,14.24
2022-10-26T20:06:13.066Z,14.23
2022-10-26T20:08:47.148Z,14.21
2022-10-26T20:11:19.999Z,14.00
2022-10-26T20:13:52.803Z,14.14
2022-10-26T20:16:25.443Z,14.11
2022-10-26T20:18:57.804Z,14.09
2022-10-26T20:21:29.788Z,14.07
2022-10-26T20:24:02.493Z,14.06
2022-10-26T20:26:35.118Z,14.05
2022-10-26T20:29:07.311Z,14.03
2022-10-26T20:31:39.682Z,14.02
2022-10-26T20:34:12.302Z,14.02
2022-10-26T20:36:44.779Z,14.01
2022-10-26T20:39:18.674Z,14.01
2022-10-26T20:41:51.641Z,14.00
2022-10-26T20:44:31.459Z,13.99
2022-10-26T20:47:04.415Z,13.97
2022-10-26T20:49:37.829Z,13.98
2022-10-26T20:52:21.040Z,13.98
2022-10-26T20:55:02.059Z,13.97
2022-10-26T20:57:36.874Z,13.95
2022-10-26T21:00:09.613Z,13.95
2022-10-26T21:02:42.793Z,13.94
2022-10-26T21:05:16.051Z,13.94
2022-10-26T21:07:48.329Z,13.92
2022-10-26T21:10:20.586Z,13.91
2022-10-26T21:12:52.959Z,13.91
2022-10-26T21:15:25.203Z,13.89
2022-10-26T21:17:57.407Z,13.80
2022-10-26T21:20:29.598Z,13.87
2022-10-26T21:23:01.658Z,13.85
2022-10-26T21:25:33.703Z,13.83
2022-10-26T21:28:06.937Z,13.82
2022-10-26T21:30:39.059Z,13.74
2022-10-26T21:33:11.255Z,13.80
2022-10-26T21:35:43.495Z,13.78
2022-10-26T21:38:15.580Z,13.69
2022-10-26T21:40:47.966Z,13.76
2022-10-26T21:43:19.914Z,13.75
2022-10-26T21:45:59.272Z,13.74
2022-10-26T21:48:32.541Z,13.71
2022-10-26T21:51:05.949Z,13.71
2022-10-26T21:53:37.965Z,13.70
2022-10-26T21:56:13.296Z,13.69
2022-10-26T21:58:45.585Z,13.69
2022-10-26T22:01:19.288Z,13.70
2022-10-26T22:03:52.030Z,13.71
2022-10-26T22:06:26.817Z,13.73
2022-10-26T22:08:59.027Z,13.78
2022-10-26T22:11:31.586Z,13.78
2022-10-26T22:14:04.119Z,13.80
2022-10-26T22:16:36.261Z,13.81
2022-10-26T22:19:10.112Z,13.81
2022-10-26T22:21:43.484Z,13.73
2022-10-26T22:24:15.555Z,13.84
2022-10-26T22:26:47.490Z,13.85
2022-10-26T22:29:19.746Z,13.87
2022-10-26T22:31:52.263Z,13.87
2022-10-26T22:34:24.482Z,13.89
2022-10-26T22:36:56.948Z,13.93
2022-10-26T22:39:29.134Z,13.94
2022-10-26T22:42:01.992Z,13.84
2022-10-26T22:44:34.233Z,13.97
2022-10-26T22:47:06.622Z,13.99
2022-10-26T22:49:38.572Z,14.01
2022-10-26T22:52:10.740Z,13.99
2022-10-26T22:54:42.917Z,14.02
2022-10-26T22:57:14.879Z,14.04
2022-10-26T22:59:46.782Z,14.06
2022-10-26T23:02:18.889Z,14.06
2022-10-26T23:04:51.031Z,14.08
2022-10-26T23:07:26.339Z,14.08
2022-10-26T23:09:59.161Z,14.08
2022-10-26T23:12:31.455Z,14.08
2022-10-26T23:15:03.696Z,14.06
2022-10-26T23:17:36.550Z,14.06
2022-10-26T23:20:11.118Z,14.05
2022-10-26T23:22:43.072Z,14.04
2022-10-26T23:25:15.704Z,14.04
2022-10-26T23:27:47.666Z,14.05
2022-10-26T23:30:20.104Z,14.05
2022-10-26T23:32:52.429Z,14.01
2022-10-26T23:35:25.033Z,14.00
2022-10-26T23:37:59.772Z,14.00
2022-10-26T23:40:32.345Z,13.99
2022-10-26T23:43:04.948Z,13.97
2022-10-26T23:45:37.059Z,13.97
2022-10-26T23:48:11.048Z,13.94
2022-10-26T23:50:44.714Z,13.91
2022-10-26T23:53:18.651Z,13.91
2022-10-26T23:55:51.192Z,13.92
2022-10-26T23:58:23.301Z,13.91
